Schedule Details


Flight Number: CTN321
Departure: Ruzyne (LKPR) at 10:40
Arrival: Franjo Tudman (LDZA) at 12:00
Route: VOZ Z21 PISAM DCT MUREG DCT PETOV

Weather Information
LKPR 221600Z 13008KT CAVOK 18/06 Q1013 NOSIG
LDZA 221600Z 21004KT CAVOK 18/12 Q1016 NOSIG
Schedule Frequency

Route Map